sensor_id;sensor_type;location;lat;lon;timestamp;P1;durP1;ratioP1;P2;durP2;ratioP2
15406;SDS011;7802;51.568;6.364;2022-07-03T00:00:05;1.90;;;1.40;;
15406;SDS011;7802;51.568;6.364;2022-07-03T00:02:37;1.60;;;1.50;;
15406;SDS011;7802;51.568;6.364;2022-07-03T00:05:07;1.98;;;1.80;;
15406;SDS011;7802;51.568;6.364;2022-07-03T00:07:36;1.70;;;1.60;;
15406;SDS011;7802;51.568;6.364;2022-07-03T00:10:05;1.60;;;1.50;;
15406;SDS011;7802;51.568;6.364;2022-07-03T00:12:34;1.50;;;1.40;;
15406;SDS011;7802;51.568;6.364;2022-07-03T00:15:03;2.13;;;1.70;;
15406;SDS011;7802;51.568;6.364;2022-07-03T00:17:31;1.50;;;1.40;;
15406;SDS011;7802;51.568;6.364;2022-07-03T00:19:59;1.92;;;1.52;;
15406;SDS011;7802;51.568;6.364;2022-07-03T00:22:29;2.40;;;1.63;;
15406;SDS011;7802;51.568;6.364;2022-07-03T00:25:01;2.47;;;1.65;;
15406;SDS011;7802;51.568;6.364;2022-07-03T00:27:31;2.03;;;1.55;;
15406;SDS011;7802;51.568;6.364;2022-07-03T00:30:01;3.35;;;1.65;;
15406;SDS011;7802;51.568;6.364;2022-07-03T00:32:30;2.10;;;1.83;;
15406;SDS011;7802;51.568;6.364;2022-07-03T00:34:58;3.63;;;1.83;;
15406;SDS011;7802;51.568;6.364;2022-07-03T00:37:29;3.25;;;1.90;;
15406;SDS011;7802;51.568;6.364;2022-07-03T00:39:57;2.45;;;1.95;;
15406;SDS011;7802;51.568;6.364;2022-07-03T00:42:26;2.85;;;1.50;;
15406;SDS011;7802;51.568;6.364;2022-07-03T00:44:55;2.42;;;1.70;;
15406;SDS011;7802;51.568;6.364;2022-07-03T00:47:25;1.67;;;1.50;;
15406;SDS011;7802;51.568;6.364;2022-07-03T00:49:54;2.13;;;1.70;;
15406;SDS011;7802;51.568;6.364;2022-07-03T00:52:23;2.13;;;1.85;;
15406;SDS011;7802;51.568;6.364;2022-07-03T00:54:54;1.60;;;1.50;;
15406;SDS011;7802;51.568;6.364;2022-07-03T00:57:23;1.73;;;1.63;;
15406;SDS011;7802;51.568;6.364;2022-07-03T00:59:52;2.10;;;1.60;;
15406;SDS011;7802;51.568;6.364;2022-07-03T01:02:24;2.03;;;1.60;;
15406;SDS011;7802;51.568;6.364;2022-07-03T01:05:03;2.88;;;1.63;;
15406;SDS011;7802;51.568;6.364;2022-07-03T01:07:41;1.77;;;1.67;;
15406;SDS011;7802;51.568;6.364;2022-07-03T01:10:22;3.13;;;2.00;;
15406;SDS011;7802;51.568;6.364;2022-07-03T01:13:00;1.60;;;1.50;;
15406;SDS011;7802;51.568;6.364;2022-07-03T01:15:39;1.77;;;1.67;;
15406;SDS011;7802;51.568;6.364;2022-07-03T01:18:17;2.47;;;1.70;;
15406;SDS011;7802;51.568;6.364;2022-07-03T01:20:53;2.03;;;1.80;;
15406;SDS011;7802;51.568;6.364;2022-07-03T01:23:47;2.10;;;1.90;;
15406;SDS011;7802;51.568;6.364;2022-07-03T01:26:37;3.35;;;1.90;;
15406;SDS011;7802;51.568;6.364;2022-07-03T01:29:07;2.03;;;1.83;;
15406;SDS011;7802;51.568;6.364;2022-07-03T01:31:40;3.03;;;1.85;;
15406;SDS011;7802;51.568;6.364;2022-07-03T01:34:12;2.28;;;1.73;;
15406;SDS011;7802;51.568;6.364;2022-07-03T01:36:41;2.17;;;1.80;;
15406;SDS011;7802;51.568;6.364;2022-07-03T01:39:10;3.28;;;1.88;;
15406;SDS011;7802;51.568;6.364;2022-07-03T01:41:45;1.63;;;1.52;;
15406;SDS011;7802;51.568;6.364;2022-07-03T01:44:16;1.80;;;1.70;;
15406;SDS011;7802;51.568;6.364;2022-07-03T01:46:46;4.03;;;1.67;;
15406;SDS011;7802;51.568;6.364;2022-07-03T01:49:14;1.57;;;1.50;;
15406;SDS011;7802;51.568;6.364;2022-07-03T01:51:42;1.90;;;1.80;;
15406;SDS011;7802;51.568;6.364;2022-07-03T01:54:11;1.88;;;1.77;;
15406;SDS011;7802;51.568;6.364;2022-07-03T01:56:40;2.37;;;1.73;;
15406;SDS011;7802;51.568;6.364;2022-07-03T01:59:12;1.92;;;1.83;;
15406;SDS011;7802;51.568;6.364;2022-07-03T02:01:43;2.00;;;1.83;;
15406;SDS011;7802;51.568;6.364;2022-07-03T02:04:20;3.30;;;1.97;;
15406;SDS011;7802;51.568;6.364;2022-07-03T02:06:59;2.10;;;1.90;;
15406;SDS011;7802;51.568;6.364;2022-07-03T02:09:35;1.83;;;1.73;;
15406;SDS011;7802;51.568;6.364;2022-07-03T02:12:14;2.42;;;2.00;;
15406;SDS011;7802;51.568;6.364;2022-07-03T02:14:48;2.57;;;1.70;;
15406;SDS011;7802;51.568;6.364;2022-07-03T02:17:25;2.27;;;1.60;;
15406;SDS011;7802;51.568;6.364;2022-07-03T02:19:58;1.80;;;1.70;;
15406;SDS011;7802;51.568;6.364;2022-07-03T02:22:30;2.10;;;1.80;;
15406;SDS011;7802;51.568;6.364;2022-07-03T02:25:02;4.30;;;2.17;;
15406;SDS011;7802;51.568;6.364;2022-07-03T02:27:32;1.87;;;1.77;;
15406;SDS011;7802;51.568;6.364;2022-07-03T02:30:12;6.83;;;2.20;;
15406;SDS011;7802;51.568;6.364;2022-07-03T02:32:43;5.33;;;2.13;;
15406;SDS011;7802;51.568;6.364;2022-07-03T02:35:17;2.10;;;1.83;;
15406;SDS011;7802;51.568;6.364;2022-07-03T02:37:50;3.03;;;2.00;;
15406;SDS011;7802;51.568;6.364;2022-07-03T02:40:27;2.00;;;1.90;;
15406;SDS011;7802;51.568;6.364;2022-07-03T02:43:02;2.40;;;2.23;;
15406;SDS011;7802;51.568;6.364;2022-07-03T02:45:43;2.80;;;2.07;;
15406;SDS011;7802;51.568;6.364;2022-07-03T02:48:18;2.50;;;2.30;;
15406;SDS011;7802;51.568;6.364;2022-07-03T02:50:57;2.97;;;2.67;;
15406;SDS011;7802;51.568;6.364;2022-07-03T02:53:33;4.53;;;2.47;;
15406;SDS011;7802;51.568;6.364;2022-07-03T02:56:07;2.50;;;2.30;;
15406;SDS011;7802;51.568;6.364;2022-07-03T02:58:44;2.50;;;2.30;;
15406;SDS011;7802;51.568;6.364;2022-07-03T03:01:30;3.60;;;2.30;;
15406;SDS011;7802;51.568;6.364;2022-07-03T03:04:08;4.23;;;2.30;;
15406;SDS011;7802;51.568;6.364;2022-07-03T03:06:40;3.47;;;2.50;;
15406;SDS011;7802;51.568;6.364;2022-07-03T03:09:13;3.50;;;2.90;;
15406;SDS011;7802;51.568;6.364;2022-07-03T03:11:46;2.70;;;2.50;;
15406;SDS011;7802;51.568;6.364;2022-07-03T03:14:18;2.90;;;2.63;;
15406;SDS011;7802;51.568;6.364;2022-07-03T03:16:51;2.60;;;2.40;;
15406;SDS011;7802;51.568;6.364;2022-07-03T03:19:20;3.50;;;2.23;;
15406;SDS011;7802;51.568;6.364;2022-07-03T03:21:58;2.83;;;2.40;;
15406;SDS011;7802;51.568;6.364;2022-07-03T03:24:36;2.60;;;2.40;;
15406;SDS011;7802;51.568;6.364;2022-07-03T03:27:04;3.13;;;2.83;;
15406;SDS011;7802;51.568;6.364;2022-07-03T03:29:34;3.43;;;3.13;;
15406;SDS011;7802;51.568;6.364;2022-07-03T03:32:04;4.70;;;2.90;;
15406;SDS011;7802;51.568;6.364;2022-07-03T03:34:33;4.77;;;3.40;;
15406;SDS011;7802;51.568;6.364;2022-07-03T03:37:02;6.83;;;3.20;;
15406;SDS011;7802;51.568;6.364;2022-07-03T03:39:30;3.13;;;2.93;;
15406;SDS011;7802;51.568;6.364;2022-07-03T03:41:58;3.07;;;2.87;;
15406;SDS011;7802;51.568;6.364;2022-07-03T03:44:29;3.60;;;3.30;;
15406;SDS011;7802;51.568;6.364;2022-07-03T03:46:57;3.97;;;3.20;;
15406;SDS011;7802;51.568;6.364;2022-07-03T03:49:26;5.73;;;3.17;;
15406;SDS011;7802;51.568;6.364;2022-07-03T03:51:56;4.00;;;2.90;;
15406;SDS011;7802;51.568;6.364;2022-07-03T03:54:24;3.97;;;3.20;;
15406;SDS011;7802;51.568;6.364;2022-07-03T03:56:52;5.03;;;3.63;;
15406;SDS011;7802;51.568;6.364;2022-07-03T03:59:20;4.47;;;3.37;;
15406;SDS011;7802;51.568;6.364;2022-07-03T04:01:49;4.53;;;3.60;;
15406;SDS011;7802;51.568;6.364;2022-07-03T04:04:17;5.77;;;3.70;;
15406;SDS011;7802;51.568;6.364;2022-07-03T04:06:48;6.00;;;3.70;;
15406;SDS011;7802;51.568;6.364;2022-07-03T04:09:17;3.63;;;3.33;;
15406;SDS011;7802;51.568;6.364;2022-07-03T04:11:45;4.00;;;3.70;;
15406;SDS011;7802;51.568;6.364;2022-07-03T04:14:13;4.50;;;4.10;;
15406;SDS011;7802;51.568;6.364;2022-07-03T04:16:41;4.27;;;3.87;;
15406;SDS011;7802;51.568;6.364;2022-07-03T04:19:09;5.50;;;3.70;;
15406;SDS011;7802;51.568;6.364;2022-07-03T04:21:37;4.07;;;3.67;;
15406;SDS011;7802;51.568;6.364;2022-07-03T04:24:07;4.83;;;4.00;;
15406;SDS011;7802;51.568;6.364;2022-07-03T04:26:35;4.50;;;4.10;;
15406;SDS011;7802;51.568;6.364;2022-07-03T04:29:03;5.43;;;3.73;;
15406;SDS011;7802;51.568;6.364;2022-07-03T04:31:31;5.07;;;4.63;;
15406;SDS011;7802;51.568;6.364;2022-07-03T04:33:59;4.57;;;4.17;;
15406;SDS011;7802;51.568;6.364;2022-07-03T04:36:27;4.25;;;3.95;;
15406;SDS011;7802;51.568;6.364;2022-07-03T04:38:56;4.37;;;4.03;;
15406;SDS011;7802;51.568;6.364;2022-07-03T04:41:25;7.32;;;4.68;;
15406;SDS011;7802;51.568;6.364;2022-07-03T04:43:53;4.85;;;4.45;;
15406;SDS011;7802;51.568;6.364;2022-07-03T04:46:21;4.60;;;4.22;;
15406;SDS011;7802;51.568;6.364;2022-07-03T04:48:50;8.95;;;4.85;;
15406;SDS011;7802;51.568;6.364;2022-07-03T04:51:18;5.40;;;5.00;;
15406;SDS011;7802;51.568;6.364;2022-07-03T04:53:46;8.20;;;5.88;;
15406;SDS011;7802;51.568;6.364;2022-07-03T04:56:14;5.55;;;5.15;;
15406;SDS011;7802;51.568;6.364;2022-07-03T04:58:43;5.78;;;5.07;;
15406;SDS011;7802;51.568;6.364;2022-07-03T05:01:12;5.72;;;5.22;;
15406;SDS011;7802;51.568;6.364;2022-07-03T05:03:40;5.95;;;5.45;;
15406;SDS011;7802;51.568;6.364;2022-07-03T05:06:08;6.25;;;5.72;;
15406;SDS011;7802;51.568;6.364;2022-07-03T05:08:36;6.22;;;5.72;;
15406;SDS011;7802;51.568;6.364;2022-07-03T05:11:04;6.25;;;5.65;;
15406;SDS011;7802;51.568;6.364;2022-07-03T05:13:32;12.73;;;9.48;;
15406;SDS011;7802;51.568;6.364;2022-07-03T05:16:01;6.68;;;6.05;;
15406;SDS011;7802;51.568;6.364;2022-07-03T05:18:30;8.13;;;6.18;;
15406;SDS011;7802;51.568;6.364;2022-07-03T05:20:58;7.07;;;6.38;;
15406;SDS011;7802;51.568;6.364;2022-07-03T05:23:26;7.30;;;6.70;;
15406;SDS011;7802;51.568;6.364;2022-07-03T05:25:54;8.25;;;7.55;;
15406;SDS011;7802;51.568;6.364;2022-07-03T05:28:22;7.85;;;6.95;;
15406;SDS011;7802;51.568;6.364;2022-07-03T05:30:50;6.97;;;6.25;;
15406;SDS011;7802;51.568;6.364;2022-07-03T05:33:20;8.70;;;6.60;;
15406;SDS011;7802;51.568;6.364;2022-07-03T05:35:48;6.88;;;6.18;;
15406;SDS011;7802;51.568;6.364;2022-07-03T05:38:16;6.18;;;5.55;;
15406;SDS011;7802;51.568;6.364;2022-07-03T05:41:05;8.27;;;6.53;;
15406;SDS011;7802;51.568;6.364;2022-07-03T05:43:33;6.97;;;6.18;;
15406;SDS011;7802;51.568;6.364;2022-07-03T05:46:01;7.40;;;6.70;;
15406;SDS011;7802;51.568;6.364;2022-07-03T05:48:31;7.18;;;6.47;;
15406;SDS011;7802;51.568;6.364;2022-07-03T05:51:00;7.00;;;6.30;;
15406;SDS011;7802;51.568;6.364;2022-07-03T05:53:28;8.10;;;6.57;;
15406;SDS011;7802;51.568;6.364;2022-07-03T05:55:57;6.53;;;5.93;;
15406;SDS011;7802;51.568;6.364;2022-07-03T05:58:25;5.97;;;5.38;;
15406;SDS011;7802;51.568;6.364;2022-07-03T06:00:54;7.45;;;5.82;;
15406;SDS011;7802;51.568;6.364;2022-07-03T06:03:22;6.82;;;5.38;;
15406;SDS011;7802;51.568;6.364;2022-07-03T06:05:51;5.93;;;5.32;;
15406;SDS011;7802;51.568;6.364;2022-07-03T06:08:19;6.93;;;5.35;;
15406;SDS011;7802;51.568;6.364;2022-07-03T06:10:47;6.22;;;5.13;;
15406;SDS011;7802;51.568;6.364;2022-07-03T06:13:15;6.72;;;5.88;;
15406;SDS011;7802;51.568;6.364;2022-07-03T06:15:43;6.00;;;4.90;;
15406;SDS011;7802;51.568;6.364;2022-07-03T06:18:12;6.28;;;5.68;;
15406;SDS011;7802;51.568;6.364;2022-07-03T06:20:40;5.10;;;4.60;;
15406;SDS011;7802;51.568;6.364;2022-07-03T06:23:09;5.53;;;5.00;;
15406;SDS011;7802;51.568;6.364;2022-07-03T06:25:57;5.55;;;4.55;;
15406;SDS011;7802;51.568;6.364;2022-07-03T06:28:25;4.38;;;4.07;;
15406;SDS011;7802;51.568;6.364;2022-07-03T06:30:53;4.88;;;4.47;;
15406;SDS011;7802;51.568;6.364;2022-07-03T06:33:21;5.20;;;3.80;;
15406;SDS011;7802;51.568;6.364;2022-07-03T06:35:49;5.93;;;4.40;;
15406;SDS011;7802;51.568;6.364;2022-07-03T06:38:19;3.78;;;2.97;;
15406;SDS011;7802;51.568;6.364;2022-07-03T06:40:47;4.65;;;3.67;;
15406;SDS011;7802;51.568;6.364;2022-07-03T06:43:15;4.68;;;3.40;;
15406;SDS011;7802;51.568;6.364;2022-07-03T06:45:43;5.13;;;4.20;;
15406;SDS011;7802;51.568;6.364;2022-07-03T06:48:11;5.68;;;3.72;;
15406;SDS011;7802;51.568;6.364;2022-07-03T06:50:39;3.85;;;3.55;;
15406;SDS011;7802;51.568;6.364;2022-07-03T06:53:07;6.30;;;3.38;;
15406;SDS011;7802;51.568;6.364;2022-07-03T06:55:36;3.22;;;2.33;;
15406;SDS011;7802;51.568;6.364;2022-07-03T06:58:04;3.28;;;2.63;;
15406;SDS011;7802;51.568;6.364;2022-07-03T07:00:33;4.60;;;2.42;;
15406;SDS011;7802;51.568;6.364;2022-07-03T07:03:01;4.07;;;2.78;;
15406;SDS011;7802;51.568;6.364;2022-07-03T07:05:29;3.00;;;2.40;;
15406;SDS011;7802;51.568;6.364;2022-07-03T07:07:57;2.78;;;2.55;;
15406;SDS011;7802;51.568;6.364;2022-07-03T07:10:25;2.95;;;2.45;;
15406;SDS011;7802;51.568;6.364;2022-07-03T07:12:55;3.75;;;2.80;;
15406;SDS011;7802;51.568;6.364;2022-07-03T07:15:23;2.30;;;2.10;;
15406;SDS011;7802;51.568;6.364;2022-07-03T07:17:51;2.78;;;2.35;;
15406;SDS011;7802;51.568;6.364;2022-07-03T07:20:19;2.70;;;2.50;;
15406;SDS011;7802;51.568;6.364;2022-07-03T07:22:47;4.72;;;2.60;;
15406;SDS011;7802;51.568;6.364;2022-07-03T07:25:15;3.38;;;2.10;;
15406;SDS011;7802;51.568;6.364;2022-07-03T07:27:43;3.40;;;2.10;;
15406;SDS011;7802;51.568;6.364;2022-07-03T07:30:13;2.50;;;2.30;;
15406;SDS011;7802;51.568;6.364;2022-07-03T07:32:41;3.95;;;2.42;;
15406;SDS011;7802;51.568;6.364;2022-07-03T07:35:09;3.03;;;2.20;;
15406;SDS011;7802;51.568;6.364;2022-07-03T07:37:37;3.50;;;2.53;;
15406;SDS011;7802;51.568;6.364;2022-07-03T07:40:06;4.45;;;2.78;;
15406;SDS011;7802;51.568;6.364;2022-07-03T07:42:36;4.78;;;2.78;;
15406;SDS011;7802;51.568;6.364;2022-07-03T07:45:04;3.58;;;2.20;;
15406;SDS011;7802;51.568;6.364;2022-07-03T07:47:34;3.60;;;2.30;;
15406;SDS011;7802;51.568;6.364;2022-07-03T07:50:02;2.83;;;2.20;;
15406;SDS011;7802;51.568;6.364;2022-07-03T07:52:31;3.72;;;1.92;;
15406;SDS011;7802;51.568;6.364;2022-07-03T07:54:59;3.15;;;2.00;;
15406;SDS011;7802;51.568;6.364;2022-07-03T07:57:33;2.65;;;2.13;;
15406;SDS011;7802;51.568;6.364;2022-07-03T08:00:06;2.20;;;2.00;;
15406;SDS011;7802;51.568;6.364;2022-07-03T08:02:39;5.65;;;2.33;;
15406;SDS011;7802;51.568;6.364;2022-07-03T08:05:26;2.65;;;2.22;;
15406;SDS011;7802;51.568;6.364;2022-07-03T08:08:04;3.22;;;2.10;;
15406;SDS011;7802;51.568;6.364;2022-07-03T08:10:34;4.85;;;2.25;;
15406;SDS011;7802;51.568;6.364;2022-07-03T08:13:03;3.90;;;2.33;;
15406;SDS011;7802;51.568;6.364;2022-07-03T08:15:32;3.60;;;2.22;;
15406;SDS011;7802;51.568;6.364;2022-07-03T08:18:02;3.72;;;2.38;;
15406;SDS011;7802;51.568;6.364;2022-07-03T08:20:31;2.22;;;2.05;;
15406;SDS011;7802;51.568;6.364;2022-07-03T08:23:00;3.35;;;2.60;;
15406;SDS011;7802;51.568;6.364;2022-07-03T08:25:29;4.15;;;2.65;;
15406;SDS011;7802;51.568;6.364;2022-07-03T08:27:57;4.65;;;2.45;;
15406;SDS011;7802;51.568;6.364;2022-07-03T08:30:26;2.05;;;1.95;;
15406;SDS011;7802;51.568;6.364;2022-07-03T08:32:56;4.53;;;2.60;;
15406;SDS011;7802;51.568;6.364;2022-07-03T08:35:26;2.55;;;2.20;;
15406;SDS011;7802;51.568;6.364;2022-07-03T08:38:01;3.03;;;2.40;;
15406;SDS011;7802;51.568;6.364;2022-07-03T08:40:29;2.65;;;2.30;;
15406;SDS011;7802;51.568;6.364;2022-07-03T08:42:58;4.22;;;2.38;;
15406;SDS011;7802;51.568;6.364;2022-07-03T08:45:30;2.97;;;2.10;;
15406;SDS011;7802;51.568;6.364;2022-07-03T08:48:00;2.58;;;2.20;;
15406;SDS011;7802;51.568;6.364;2022-07-03T08:50:33;2.13;;;1.80;;
15406;SDS011;7802;51.568;6.364;2022-07-03T08:53:02;2.33;;;2.00;;
15406;SDS011;7802;51.568;6.364;2022-07-03T08:55:30;3.30;;;2.05;;
15406;SDS011;7802;51.568;6.364;2022-07-03T08:58:00;3.70;;;1.95;;
15406;SDS011;7802;51.568;6.364;2022-07-03T09:00:29;2.70;;;1.95;;
15406;SDS011;7802;51.568;6.364;2022-07-03T09:02:59;3.47;;;1.65;;
15406;SDS011;7802;51.568;6.364;2022-07-03T09:05:32;2.00;;;1.80;;
15406;SDS011;7802;51.568;6.364;2022-07-03T09:08:02;2.88;;;1.98;;
15406;SDS011;7802;51.568;6.364;2022-07-03T09:10:33;3.35;;;1.90;;
15406;SDS011;7802;51.568;6.364;2022-07-03T09:13:01;3.25;;;2.08;;
15406;SDS011;7802;51.568;6.364;2022-07-03T09:15:29;5.18;;;1.92;;
15406;SDS011;7802;51.568;6.364;2022-07-03T09:17:58;3.53;;;2.30;;
15406;SDS011;7802;51.568;6.364;2022-07-03T09:20:28;4.15;;;2.10;;
15406;SDS011;7802;51.568;6.364;2022-07-03T09:23:09;2.13;;;1.85;;
15406;SDS011;7802;51.568;6.364;2022-07-03T09:25:53;2.80;;;1.85;;
15406;SDS011;7802;51.568;6.364;2022-07-03T09:28:23;2.50;;;1.58;;
15406;SDS011;7802;51.568;6.364;2022-07-03T09:31:08;3.25;;;2.10;;
15406;SDS011;7802;51.568;6.364;2022-07-03T09:33:47;4.90;;;1.77;;
15406;SDS011;7802;51.568;6.364;2022-07-03T09:36:18;1.40;;;1.30;;
15406;SDS011;7802;51.568;6.364;2022-07-03T09:38:49;2.22;;;1.60;;
15406;SDS011;7802;51.568;6.364;2022-07-03T09:41:17;2.42;;;1.80;;
15406;SDS011;7802;51.568;6.364;2022-07-03T09:43:45;2.42;;;1.60;;
15406;SDS011;7802;51.568;6.364;2022-07-03T09:46:13;2.85;;;1.75;;
15406;SDS011;7802;51.568;6.364;2022-07-03T09:48:41;5.60;;;1.70;;
15406;SDS011;7802;51.568;6.364;2022-07-03T09:51:14;2.20;;;1.60;;
15406;SDS011;7802;51.568;6.364;2022-07-03T09:53:52;4.22;;;1.45;;
15406;SDS011;7802;51.568;6.364;2022-07-03T09:56:24;3.22;;;1.40;;
15406;SDS011;7802;51.568;6.364;2022-07-03T09:59:03;1.50;;;1.40;;
15406;SDS011;7802;51.568;6.364;2022-07-03T10:01:34;2.53;;;1.52;;
15406;SDS011;7802;51.568;6.364;2022-07-03T10:04:13;3.13;;;1.63;;
15406;SDS011;7802;51.568;6.364;2022-07-03T10:06:50;3.63;;;1.38;;
15406;SDS011;7802;51.568;6.364;2022-07-03T10:09:21;4.60;;;1.48;;
15406;SDS011;7802;51.568;6.364;2022-07-03T10:11:51;6.55;;;1.40;;
15406;SDS011;7802;51.568;6.364;2022-07-03T10:14:22;3.03;;;1.48;;
15406;SDS011;7802;51.568;6.364;2022-07-03T10:16:51;2.30;;;1.27;;
15406;SDS011;7802;51.568;6.364;2022-07-03T10:19:20;2.50;;;1.42;;
15406;SDS011;7802;51.568;6.364;2022-07-03T10:21:52;3.10;;;1.25;;
15406;SDS011;7802;51.568;6.364;2022-07-03T10:24:23;1.48;;;1.30;;
15406;SDS011;7802;51.568;6.364;2022-07-03T10:26:53;1.40;;;1.30;;
15406;SDS011;7802;51.568;6.364;2022-07-03T10:29:23;2.65;;;1.45;;
15406;SDS011;7802;51.568;6.364;2022-07-03T10:31:55;2.53;;;1.20;;
15406;SDS011;7802;51.568;6.364;2022-07-03T10:34:24;2.22;;;1.17;;
15406;SDS011;7802;51.568;6.364;2022-07-03T10:36:54;1.20;;;1.10;;
15406;SDS011;7802;51.568;6.364;2022-07-03T10:39:29;1.80;;;1.25;;
15406;SDS011;7802;51.568;6.364;2022-07-03T10:42:04;1.20;;;1.10;;
15406;SDS011;7802;51.568;6.364;2022-07-03T10:45:02;2.50;;;1.15;;
15406;SDS011;7802;51.568;6.364;2022-07-03T10:47:36;1.95;;;1.00;;
15406;SDS011;7802;51.568;6.364;2022-07-03T10:50:07;2.00;;;1.10;;
15406;SDS011;7802;51.568;6.364;2022-07-03T10:52:37;2.90;;;1.08;;
15406;SDS011;7802;51.568;6.364;2022-07-03T10:55:07;1.75;;;0.95;;
15406;SDS011;7802;51.568;6.364;2022-07-03T10:57:36;1.45;;;1.10;;
15406;SDS011;7802;51.568;6.364;2022-07-03T11:00:12;1.33;;;1.20;;
15406;SDS011;7802;51.568;6.364;2022-07-03T11:02:45;0.82;;;0.82;;
15406;SDS011;7802;51.568;6.364;2022-07-03T11:05:16;2.10;;;0.95;;
15406;SDS011;7802;51.568;6.364;2022-07-03T11:08:05;0.90;;;0.90;;
15406;SDS011;7802;51.568;6.364;2022-07-03T11:10:36;1.83;;;1.20;;
15406;SDS011;7802;51.568;6.364;2022-07-03T11:13:09;4.00;;;1.00;;
15406;SDS011;7802;51.568;6.364;2022-07-03T11:15:39;1.80;;;0.90;;
15406;SDS011;7802;51.568;6.364;2022-07-03T11:18:09;1.20;;;1.08;;
15406;SDS011;7802;51.568;6.364;2022-07-03T11:23:59;2.67;;;1.00;;
15406;SDS011;7802;51.568;6.364;2022-07-03T11:29:52;2.38;;;1.30;;
15406;SDS011;7802;51.568;6.364;2022-07-03T11:38:28;2.55;;;1.40;;
15406;SDS011;7802;51.568;6.364;2022-07-03T11:40:58;1.90;;;1.08;;
15406;SDS011;7802;51.568;6.364;2022-07-03T11:43:28;2.38;;;1.17;;
15406;SDS011;7802;51.568;6.364;2022-07-03T11:45:56;3.58;;;1.20;;
15406;SDS011;7802;51.568;6.364;2022-07-03T11:48:28;1.92;;;1.30;;
15406;SDS011;7802;51.568;6.364;2022-07-03T11:50:59;1.42;;;1.08;;
15406;SDS011;7802;51.568;6.364;2022-07-03T11:53:29;4.18;;;1.10;;
15406;SDS011;7802;51.568;6.364;2022-07-03T11:55:59;1.83;;;1.20;;
15406;SDS011;7802;51.568;6.364;2022-07-03T11:58:45;2.80;;;1.42;;
15406;SDS011;7802;51.568;6.364;2022-07-03T12:01:27;2.47;;;1.50;;
15406;SDS011;7802;51.568;6.364;2022-07-03T12:04:07;2.10;;;1.63;;
15406;SDS011;7802;51.568;6.364;2022-07-03T12:06:37;2.65;;;1.40;;
15406;SDS011;7802;51.568;6.364;2022-07-03T12:09:14;3.53;;;1.48;;
15406;SDS011;7802;51.568;6.364;2022-07-03T12:11:53;2.33;;;1.40;;
15406;SDS011;7802;51.568;6.364;2022-07-03T12:14:36;1.85;;;1.60;;
15406;SDS011;7802;51.568;6.364;2022-07-03T12:17:10;2.45;;;1.60;;
15406;SDS011;7802;51.568;6.364;2022-07-03T12:19:46;3.70;;;1.60;;
15406;SDS011;7802;51.568;6.364;2022-07-03T12:22:22;1.92;;;1.25;;
15406;SDS011;7802;51.568;6.364;2022-07-03T12:24:55;2.72;;;1.50;;
15406;SDS011;7802;51.568;6.364;2022-07-03T12:27:27;4.30;;;1.77;;
15406;SDS011;7802;51.568;6.364;2022-07-03T12:29:58;3.28;;;1.65;;
15406;SDS011;7802;51.568;6.364;2022-07-03T12:32:26;1.70;;;1.40;;
15406;SDS011;7802;51.568;6.364;2022-07-03T12:34:55;2.38;;;1.33;;
15406;SDS011;7802;51.568;6.364;2022-07-03T12:37:33;1.80;;;1.50;;
15406;SDS011;7802;51.568;6.364;2022-07-03T12:40:02;1.48;;;1.38;;
15406;SDS011;7802;51.568;6.364;2022-07-03T12:42:31;1.23;;;1.13;;
15406;SDS011;7802;51.568;6.364;2022-07-03T12:45:11;2.33;;;1.27;;
15406;SDS011;7802;51.568;6.364;2022-07-03T12:47:43;1.00;;;1.00;;
15406;SDS011;7802;51.568;6.364;2022-07-03T12:50:11;1.52;;;1.20;;
15406;SDS011;7802;51.568;6.364;2022-07-03T12:52:48;1.30;;;1.20;;
15406;SDS011;7802;51.568;6.364;2022-07-03T12:55:22;1.90;;;1.20;;
15406;SDS011;7802;51.568;6.364;2022-07-03T13:00:56;1.40;;;1.25;;
15406;SDS011;7802;51.568;6.364;2022-07-03T13:03:28;1.30;;;1.00;;
15406;SDS011;7802;51.568;6.364;2022-07-03T13:06:11;1.60;;;1.10;;
15406;SDS011;7802;51.568;6.364;2022-07-03T13:08:48;1.90;;;1.00;;
15406;SDS011;7802;51.568;6.364;2022-07-03T13:11:24;0.88;;;0.80;;
15406;SDS011;7802;51.568;6.364;2022-07-03T13:13:53;2.85;;;1.08;;
15406;SDS011;7802;51.568;6.364;2022-07-03T13:16:29;1.70;;;1.10;;
15406;SDS011;7802;51.568;6.364;2022-07-03T13:19:04;3.03;;;1.10;;
15406;SDS011;7802;51.568;6.364;2022-07-03T13:21:32;2.88;;;1.10;;
15406;SDS011;7802;51.568;6.364;2022-07-03T13:24:02;1.45;;;1.10;;
15406;SDS011;7802;51.568;6.364;2022-07-03T13:26:30;1.35;;;1.00;;
15406;SDS011;7802;51.568;6.364;2022-07-03T13:28:59;1.60;;;1.33;;
15406;SDS011;7802;51.568;6.364;2022-07-03T13:31:27;1.83;;;1.35;;
15406;SDS011;7802;51.568;6.364;2022-07-03T13:33:57;2.60;;;1.00;;
15406;SDS011;7802;51.568;6.364;2022-07-03T13:36:26;1.23;;;1.13;;
15406;SDS011;7802;51.568;6.364;2022-07-03T13:38:55;1.67;;;1.05;;
15406;SDS011;7802;51.568;6.364;2022-07-03T13:41:23;2.90;;;1.50;;
15406;SDS011;7802;51.568;6.364;2022-07-03T13:43:51;1.30;;;1.30;;
15406;SDS011;7802;51.568;6.364;2022-07-03T13:46:21;3.00;;;1.60;;
15406;SDS011;7802;51.568;6.364;2022-07-03T13:48:50;2.58;;;1.58;;
15406;SDS011;7802;51.568;6.364;2022-07-03T13:51:20;1.75;;;1.30;;
15406;SDS011;7802;51.568;6.364;2022-07-03T13:53:48;1.83;;;1.35;;
15406;SDS011;7802;51.568;6.364;2022-07-03T13:56:16;1.48;;;1.30;;
15406;SDS011;7802;51.568;6.364;2022-07-03T13:58:45;1.30;;;1.17;;
15406;SDS011;7802;51.568;6.364;2022-07-03T14:01:17;1.50;;;1.40;;
15406;SDS011;7802;51.568;6.364;2022-07-03T14:03:46;2.67;;;1.20;;
15406;SDS011;7802;51.568;6.364;2022-07-03T14:06:15;1.08;;;1.08;;
15406;SDS011;7802;51.568;6.364;2022-07-03T14:08:44;4.43;;;1.30;;
15406;SDS011;7802;51.568;6.364;2022-07-03T14:11:12;3.13;;;1.20;;
15406;SDS011;7802;51.568;6.364;2022-07-03T14:13:41;1.60;;;1.08;;
15406;SDS011;7802;51.568;6.364;2022-07-03T14:16:10;1.40;;;1.27;;
15406;SDS011;7802;51.568;6.364;2022-07-03T14:18:38;1.60;;;1.30;;
15406;SDS011;7802;51.568;6.364;2022-07-03T14:21:06;1.13;;;1.02;;
15406;SDS011;7802;51.568;6.364;2022-07-03T14:23:34;1.45;;;1.13;;
15406;SDS011;7802;51.568;6.364;2022-07-03T14:26:04;1.73;;;1.00;;
15406;SDS011;7802;51.568;6.364;2022-07-03T14:28:32;2.22;;;1.42;;
15406;SDS011;7802;51.568;6.364;2022-07-03T14:31:17;1.58;;;1.48;;
15406;SDS011;7802;51.568;6.364;2022-07-03T14:34:03;1.75;;;1.60;;
15406;SDS011;7802;51.568;6.364;2022-07-03T14:36:31;2.78;;;1.52;;
15406;SDS011;7802;51.568;6.364;2022-07-03T14:39:09;1.80;;;1.30;;
15406;SDS011;7802;51.568;6.364;2022-07-03T14:41:41;1.20;;;1.10;;
15406;SDS011;7802;51.568;6.364;2022-07-03T14:44:09;1.30;;;1.02;;
15406;SDS011;7802;51.568;6.364;2022-07-03T14:46:37;1.58;;;1.30;;
15406;SDS011;7802;51.568;6.364;2022-07-03T14:49:05;2.33;;;1.40;;
15406;SDS011;7802;51.568;6.364;2022-07-03T14:51:34;2.22;;;1.30;;
15406;SDS011;7802;51.568;6.364;2022-07-03T14:54:02;1.80;;;1.30;;
15406;SDS011;7802;51.568;6.364;2022-07-03T14:56:30;7.00;;;2.10;;
15406;SDS011;7802;51.568;6.364;2022-07-03T14:59:03;3.05;;;1.77;;
15406;SDS011;7802;51.568;6.364;2022-07-03T15:01:35;1.42;;;1.33;;
15406;SDS011;7802;51.568;6.364;2022-07-03T15:04:09;1.70;;;1.15;;
15406;SDS011;7802;51.568;6.364;2022-07-03T15:06:47;2.33;;;1.33;;
15406;SDS011;7802;51.568;6.364;2022-07-03T15:09:17;2.45;;;1.30;;
15406;SDS011;7802;51.568;6.364;2022-07-03T15:11:55;1.20;;;1.10;;
15406;SDS011;7802;51.568;6.364;2022-07-03T15:14:43;1.42;;;1.10;;
15406;SDS011;7802;51.568;6.364;2022-07-03T15:17:13;1.17;;;1.08;;
15406;SDS011;7802;51.568;6.364;2022-07-03T15:19:42;1.17;;;1.08;;
15406;SDS011;7802;51.568;6.364;2022-07-03T15:22:14;1.80;;;1.15;;
15406;SDS011;7802;51.568;6.364;2022-07-03T15:24:43;1.80;;;1.27;;
15406;SDS011;7802;51.568;6.364;2022-07-03T15:27:16;2.33;;;1.30;;
15406;SDS011;7802;51.568;6.364;2022-07-03T15:29:48;3.20;;;1.10;;
15406;SDS011;7802;51.568;6.364;2022-07-03T15:32:17;1.00;;;1.00;;
15406;SDS011;7802;51.568;6.364;2022-07-03T15:34:46;2.45;;;1.00;;
15406;SDS011;7802;51.568;6.364;2022-07-03T15:37:18;1.48;;;0.90;;
15406;SDS011;7802;51.568;6.364;2022-07-03T15:39:54;4.03;;;1.08;;